Time;durP1;ratioP1;P1;durP2;ratioP2;P2;SDS_P1;SDS_P2;PMS_P1;PMS_P2;Temp;Humidity;BMP_temperature;BMP_pressure;BME280_temperature;BME280_humidity;BME280_pressure;Samples;Min_cycle;Max_cycle;Signal;HPM_P1;HPM_P2
2023/12/02 00:00:05;;;;;;;16.20;10.88;;;;;;;4.45;52.21;100977.41;5049732;28;20103;-68
2023/12/02 00:02:34;;;;;;;18.88;10.85;;;;;;;4.50;51.84;100978.53;5064668;28;20053;-69
2023/12/02 00:05:02;;;;;;;18.52;10.23;;;;;;;4.54;51.19;100976.34;5055717;28;20059;-68
2023/12/02 00:07:29;;;;;;;17.08;10.95;;;;;;;4.53;51.34;100972.03;5064403;28;20117;-69
2023/12/02 00:09:57;;;;;;;18.13;10.85;;;;;;;4.49;51.08;100973.38;5061307;28;20103;-69
2023/12/02 00:12:25;;;;;;;18.73;11.00;;;;;;;4.39;50.97;100972.81;5058300;28;20107;-69
2023/12/02 00:14:53;;;;;;;16.65;10.20;;;;;;;4.39;51.52;100973.63;5064651;28;20488;-69
2023/12/02 00:17:21;;;;;;;20.13;11.45;;;;;;;4.42;51.07;100967.13;5067412;28;20078;-69
2023/12/02 00:19:50;;;;;;;17.17;11.18;;;;;;;4.45;51.78;100972.09;5064925;28;20095;-68
2023/12/02 00:22:19;;;;;;;18.67;11.30;;;;;;;4.41;51.71;100971.63;5063037;28;20103;-68
2023/12/02 00:24:47;;;;;;;15.90;10.55;;;;;;;4.41;51.61;100960.97;5065831;28;20544;-69
2023/12/02 00:27:15;;;;;;;17.92;11.20;;;;;;;4.39;51.83;100964.81;5064236;28;20086;-70
2023/12/02 00:29:44;;;;;;;19.90;11.27;;;;;;;4.37;51.45;100958.84;5064007;28;20050;-69
2023/12/02 00:32:11;;;;;;;18.95;11.07;;;;;;;4.39;51.30;100962.16;5068936;28;20056;-69
2023/12/02 00:34:55;;;;;;;18.00;10.40;;;;;;;4.41;51.68;100979.59;5051099;28;20057;-69
2023/12/02 00:37:23;;;;;;;17.75;10.80;;;;;;;4.38;51.18;100982.63;5063454;28;20045;-69
2023/12/02 00:39:51;;;;;;;15.38;10.18;;;;;;;4.40;51.26;100985.94;5061668;28;20079;-69
2023/12/02 00:42:19;;;;;;;19.95;10.57;;;;;;;4.37;51.31;100982.78;5065119;28;20444;-68
2023/12/02 00:44:47;;;;;;;16.88;10.63;;;;;;;4.39;51.25;100988.75;5053469;28;20067;-69
2023/12/02 00:47:15;;;;;;;19.60;11.68;;;;;;;4.37;51.09;100988.13;5072303;28;20056;-69
2023/12/02 00:49:43;;;;;;;18.38;11.30;;;;;;;4.27;51.31;100984.88;5076477;28;20402;-69
2023/12/02 00:52:12;;;;;;;18.40;10.75;;;;;;;4.23;51.85;100984.38;5069213;28;20090;-69
2023/12/02 00:54:40;;;;;;;19.27;11.35;;;;;;;4.27;50.97;100988.34;5065181;28;20079;-69
2023/12/02 00:57:07;;;;;;;18.50;11.65;;;;;;;4.29;51.27;100991.66;5067492;28;20044;-68
2023/12/02 00:59:35;;;;;;;19.60;11.30;;;;;;;4.28;51.67;100991.84;5063918;28;20102;-67
2023/12/02 01:02:03;;;;;;;17.65;10.48;;;;;;;4.28;50.97;100986.53;5059570;28;20045;-68
2023/12/02 01:04:31;;;;;;;16.20;9.90;;;;;;;4.27;51.99;100984.88;5064488;28;20049;-68
2023/12/02 01:06:59;;;;;;;18.05;10.88;;;;;;;4.24;51.18;100981.56;5067726;28;20053;-69
2023/12/02 01:09:28;;;;;;;19.52;10.27;;;;;;;4.25;51.53;100983.22;5064056;28;20049;-69
2023/12/02 01:11:56;;;;;;;17.67;11.40;;;;;;;4.23;51.51;100979.06;5064272;28;20112;-70
2023/12/02 01:14:25;;;;;;;18.42;10.85;;;;;;;4.24;51.11;100976.22;5063410;28;20576;-69
2023/12/02 01:16:53;;;;;;;16.55;10.32;;;;;;;4.29;51.04;100974.88;5074475;28;20076;-68
2023/12/02 01:19:21;;;;;;;15.68;9.93;;;;;;;4.29;50.93;100983.69;5055583;28;20360;-68
2023/12/02 01:21:49;;;;;;;18.70;10.95;;;;;;;4.30;51.29;100984.50;5050229;28;20057;-69
2023/12/02 01:24:17;;;;;;;18.48;11.10;;;;;;;4.28;51.39;100982.03;5048995;28;20045;-69
2023/12/02 01:26:46;;;;;;;17.13;11.10;;;;;;;4.24;50.86;100983.38;5071870;28;20055;-69
2023/12/02 01:29:14;;;;;;;17.48;10.80;;;;;;;4.21;50.91;100978.41;5063171;28;20049;-68
2023/12/02 01:31:42;;;;;;;19.05;11.20;;;;;;;4.17;51.51;100979.78;5062807;28;20053;-67
2023/12/02 01:34:09;;;;;;;20.30;11.98;;;;;;;4.09;51.00;100985.16;5060946;28;20060;-68
2023/12/02 01:36:38;;;;;;;20.58;11.77;;;;;;;4.13;51.72;100979.31;5066040;28;20132;-68
2023/12/02 01:39:06;;;;;;;18.73;11.80;;;;;;;4.15;51.46;100977.28;5061641;28;20049;-68
2023/12/02 01:41:33;;;;;;;18.77;11.20;;;;;;;4.15;51.78;100987.09;5063766;28;20136;-68
2023/12/02 01:44:02;;;;;;;17.70;10.57;;;;;;;4.15;51.08;100984.44;5062087;28;20102;-68
2023/12/02 01:46:30;;;;;;;15.57;9.68;;;;;;;4.13;50.72;100987.28;5063443;28;20057;-68
2023/12/02 01:48:59;;;;;;;17.27;10.43;;;;;;;4.02;51.69;100998.31;5069083;28;20041;-69
2023/12/02 01:51:28;;;;;;;17.63;10.73;;;;;;;4.03;51.92;100994.66;5063584;28;20087;-69
2023/12/02 01:53:56;;;;;;;17.38;10.68;;;;;;;4.06;51.32;101004.94;5064087;28;20112;-68
2023/12/02 01:56:24;;;;;;;18.70;10.80;;;;;;;4.10;51.29;101010.75;5061927;28;20125;-68
2023/12/02 01:58:53;;;;;;;17.50;11.68;;;;;;;4.19;51.49;101001.72;5064862;28;20044;-69
2023/12/02 02:01:22;;;;;;;16.63;10.32;;;;;;;4.20;51.48;101003.38;5063208;28;20045;-69
2023/12/02 02:03:50;;;;;;;18.33;10.52;;;;;;;4.15;51.71;101013.69;5064140;28;20045;-69
2023/12/02 02:06:18;;;;;;;16.65;10.80;;;;;;;4.16;51.27;101010.03;5063569;28;20076;-69
2023/12/02 02:08:46;;;;;;;17.42;10.45;;;;;;;4.15;51.44;101016.38;5063136;28;20072;-69
2023/12/02 02:11:14;;;;;;;17.27;10.90;;;;;;;4.17;51.12;101009.03;5065455;28;20490;-69
2023/12/02 02:13:42;;;;;;;15.48;10.07;;;;;;;4.15;51.44;100998.56;5062653;28;20080;-69
2023/12/02 02:16:10;;;;;;;17.67;11.00;;;;;;;4.13;51.89;101005.06;5055177;28;20079;-68
2023/12/02 02:18:39;;;;;;;17.27;10.63;;;;;;;4.15;51.65;101003.88;5070001;28;20049;-68
2023/12/02 02:21:07;;;;;;;18.42;11.07;;;;;;;4.12;51.47;100998.94;5062012;28;20052;-69
2023/12/02 02:23:37;;;;;;;19.67;10.43;;;;;;;4.15;51.73;101008.38;5062067;28;20126;-69
2023/12/02 02:26:05;;;;;;;17.25;10.48;;;;;;;4.13;51.86;101015.72;5063459;28;20053;-69
2023/12/02 02:28:33;;;;;;;16.08;10.68;;;;;;;3.99;51.81;101014.63;5066385;28;20045;-69
2023/12/02 02:31:00;;;;;;;18.83;11.13;;;;;;;4.01;52.08;101009.13;5068394;28;20202;-69
2023/12/02 02:33:31;;;;;;;18.15;11.07;;;;;;;4.02;51.86;101019.59;5063402;28;20049;-68
2023/12/02 02:35:59;;;;;;;18.27;10.35;;;;;;;4.08;51.52;101018.06;5059176;28;20049;-69
2023/12/02 02:38:27;;;;;;;17.40;11.05;;;;;;;4.06;51.00;101018.25;5063748;28;20049;-68
2023/12/02 02:40:57;;;;;;;15.98;9.68;;;;;;;4.08;51.41;101012.75;5069254;28;20078;-69
2023/12/02 02:43:24;;;;;;;18.90;11.43;;;;;;;4.05;51.71;101013.09;5071247;28;20048;-68
2023/12/02 02:45:52;;;;;;;17.77;11.25;;;;;;;4.08;51.77;101018.06;5062303;28;20051;-69
2023/12/02 02:48:20;;;;;;;18.98;11.68;;;;;;;4.07;51.64;101019.06;5058759;28;20104;-69
2023/12/02 02:50:48;;;;;;;17.35;10.93;;;;;;;4.04;51.09;101020.25;5069235;28;20052;-69
2023/12/02 02:53:16;;;;;;;19.27;11.73;;;;;;;4.05;51.62;101027.22;5063509;28;20052;-68
2023/12/02 02:55:43;;;;;;;19.52;10.95;;;;;;;4.03;51.25;101028.41;5056846;28;20445;-69
2023/12/02 02:58:13;;;;;;;17.83;10.80;;;;;;;4.00;51.33;101031.41;5061985;28;20045;-69
2023/12/02 03:00:40;;;;;;;19.77;10.90;;;;;;;4.00;51.53;101034.06;5060209;28;20056;-69
2023/12/02 03:03:08;;;;;;;19.88;11.85;;;;;;;4.01;52.18;101047.19;5066623;28;20071;-69
2023/12/02 03:05:36;;;;;;;18.15;10.80;;;;;;;4.01;52.21;101038.38;5065682;28;20109;-68
2023/12/02 03:08:04;;;;;;;20.27;10.85;;;;;;;4.02;52.02;101040.88;5064685;28;20060;-69
2023/12/02 03:10:33;;;;;;;17.83;10.13;;;;;;;4.01;52.55;101028.56;5056662;28;20045;-69
2023/12/02 03:13:01;;;;;;;18.98;11.65;;;;;;;4.01;51.98;101038.38;5058931;28;20147;-68
2023/12/02 03:15:31;;;;;;;17.42;10.75;;;;;;;3.99;52.57;101035.91;5061217;28;20061;-68
2023/12/02 03:17:59;;;;;;;16.90;10.45;;;;;;;4.00;52.12;101032.25;5062955;28;20068;-68
2023/12/02 03:20:27;;;;;;;16.23;10.18;;;;;;;3.99;52.15;101027.91;5062318;28;20044;-69
2023/12/02 03:22:54;;;;;;;17.40;10.00;;;;;;;4.04;51.94;101032.72;5066065;28;20360;-69
2023/12/02 03:25:22;;;;;;;17.83;10.85;;;;;;;4.02;51.97;101040.88;5062759;28;20041;-69
2023/12/02 03:27:51;;;;;;;17.10;9.77;;;;;;;4.01;51.96;101038.38;5065771;28;20466;-69
2023/12/02 03:30:19;;;;;;;18.30;11.60;;;;;;;4.00;52.15;101040.22;5065411;28;20064;-67
2023/12/02 03:32:48;;;;;;;17.98;11.35;;;;;;;4.01;52.65;101043.69;5062277;28;20045;-68
2023/12/02 03:35:16;;;;;;;18.17;10.98;;;;;;;4.02;51.95;101051.50;5083957;28;20049;-70
2023/12/02 03:37:43;;;;;;;19.38;11.27;;;;;;;4.00;51.82;101040.22;5067118;28;20049;-69
2023/12/02 03:40:12;;;;;;;17.70;10.52;;;;;;;3.99;52.74;101045.72;5065030;28;20049;-69
2023/12/02 03:42:40;;;;;;;18.35;10.38;;;;;;;3.98;52.37;101041.38;5061565;28;20132;-69
2023/12/02 03:45:09;;;;;;;18.35;10.80;;;;;;;3.99;52.10;101041.22;5060508;28;20056;-69
2023/12/02 03:47:37;;;;;;;18.77;11.10;;;;;;;4.00;52.21;101034.91;5065894;28;20080;-69
2023/12/02 03:50:09;;;;;;;22.35;11.82;;;;;;;3.99;52.65;101035.91;5069399;28;20045;-68
2023/12/02 03:52:37;;;;;;;15.60;9.65;;;;;;;3.98;52.16;101044.06;5066651;28;20079;-69
2023/12/02 03:55:05;;;;;;;16.60;10.23;;;;;;;3.98;52.53;101036.91;5061604;28;20045;-69
2023/12/02 03:57:33;;;;;;;19.38;11.65;;;;;;;4.00;52.12;101042.03;5064371;28;20048;-68
2023/12/02 04:00:01;;;;;;;16.95;10.32;;;;;;;3.99;52.85;101035.91;5063691;28;20049;-68
2023/12/02 04:02:28;;;;;;;18.98;11.35;;;;;;;3.99;52.30;101043.03;5065182;28;20075;-69
2023/12/02 04:04:56;;;;;;;18.98;11.20;;;;;;;3.98;52.29;101034.25;5060422;28;20045;-68
2023/12/02 04:07:25;;;;;;;18.00;10.07;;;;;;;3.99;52.89;101040.38;5064396;28;20087;-68
2023/12/02 04:09:53;;;;;;;17.23;10.95;;;;;;;3.97;52.97;101037.06;5064647;28;20416;-68
2023/12/02 04:12:21;;;;;;;18.23;10.70;;;;;;;3.99;52.05;101072.31;5061961;28;20045;-68
2023/12/02 04:14:49;;;;;;;17.88;10.38;;;;;;;3.99;52.58;101067.81;5045981;28;20057;-68
2023/12/02 04:17:17;;;;;;;18.80;10.73;;;;;;;3.99;52.42;101066.97;5065186;28;20075;-68
2023/12/02 04:19:45;;;;;;;18.15;11.02;;;;;;;3.98;52.48;101076.78;5059270;28;20057;-69
2023/12/02 04:22:13;;;;;;;17.23;10.63;;;;;;;3.99;52.84;101078.44;5060113;28;20102;-69
2023/12/02 04:24:42;;;;;;;17.60;10.73;;;;;;;3.98;52.99;101082.09;5064436;28;20086;-68
2023/12/02 04:27:10;;;;;;;19.73;11.57;;;;;;;3.96;52.51;101073.47;5048093;28;20370;-68
2023/12/02 04:29:41;;;;;;;17.60;10.68;;;;;;;3.96;52.86;101078.78;5060965;28;20048;-69
2023/12/02 04:32:09;;;;;;;20.20;10.20;;;;;;;3.96;53.09;101084.09;5064389;28;20053;-69
2023/12/02 04:34:37;;;;;;;20.45;10.88;;;;;;;3.98;52.57;101089.25;5066362;28;20045;-69
2023/12/02 04:37:05;;;;;;;16.88;10.30;;;;;;;3.97;53.24;101085.75;5051986;28;20049;-68
2023/12/02 04:39:33;;;;;;;16.40;10.10;;;;;;;3.97;53.30;101096.41;5057922;28;20084;-68
2023/12/02 04:42:03;;;;;;;18.90;11.75;;;;;;;3.96;53.05;101097.41;5065443;28;20227;-68
2023/12/02 04:44:31;;;;;;;20.33;11.68;;;;;;;3.96;52.62;101088.59;5064278;28;20124;-69
2023/12/02 04:46:59;;;;;;;19.25;11.48;;;;;;;3.97;52.94;101085.75;5056386;28;20056;-68
2023/12/02 04:49:26;;;;;;;17.58;10.55;;;;;;;3.98;52.42;101082.09;5054295;28;20044;-68
2023/12/02 04:51:54;;;;;;;19.38;11.15;;;;;;;3.98;52.66;101089.25;5065171;28;20044;-69
2023/12/02 04:54:22;;;;;;;19.20;10.57;;;;;;;3.96;52.23;101091.25;5065486;28;20064;-69
2023/12/02 04:56:50;;;;;;;19.38;11.32;;;;;;;3.94;53.17;101083.44;5064930;28;20075;-69
2023/12/02 04:59:19;;;;;;;18.25;11.13;;;;;;;3.94;53.18;101088.78;5064160;28;20045;-70
2023/12/02 05:01:46;;;;;;;22.23;11.70;;;;;;;3.94;53.05;101094.09;5060905;28;20042;-69
2023/12/02 05:04:15;;;;;;;18.80;11.40;;;;;;;3.95;52.96;101094.91;5071532;28;20056;-69
2023/12/02 05:06:43;;;;;;;19.63;11.55;;;;;;;3.95;52.73;101101.06;5067701;28;20053;-69
2023/12/02 05:09:11;;;;;;;19.15;11.85;;;;;;;3.93;53.25;101093.25;5064253;28;20081;-69
2023/12/02 05:11:39;;;;;;;17.55;11.25;;;;;;;3.96;53.21;101107.22;5070465;28;20494;-69
2023/12/02 05:14:07;;;;;;;19.55;11.00;;;;;;;3.96;53.40;101104.56;5067376;28;20186;-69
2023/12/02 05:16:36;;;;;;;18.05;11.10;;;;;;;3.96;53.49;101107.22;5063500;28;20040;-69
2023/12/02 05:19:05;;;;;;;20.02;12.07;;;;;;;3.96;53.42;101108.03;5054589;28;20128;-69
2023/12/02 05:21:32;;;;;;;21.38;12.35;;;;;;;3.97;53.03;101112.34;5067964;28;20045;-69
2023/12/02 05:24:00;;;;;;;19.70;11.00;;;;;;;3.97;53.20;101119.50;5064540;28;20083;-69
2023/12/02 05:26:28;;;;;;;20.95;12.07;;;;;;;3.98;53.52;101118.50;5064543;28;20049;-69
2023/12/02 05:28:56;;;;;;;24.33;11.23;;;;;;;3.98;53.21;101121.16;5055364;28;20123;-69
2023/12/02 05:31:24;;;;;;;19.63;11.45;;;;;;;3.97;53.16;101119.50;5057503;28;20052;-68
2023/12/02 05:33:53;;;;;;;17.35;11.30;;;;;;;3.97;53.73;101119.50;4713692;28;10001267;-68
2023/12/02 05:36:21;;;;;;;19.92;12.15;;;;;;;3.97;53.72;101120.34;5067016;28;20384;-69
2023/12/02 05:38:49;;;;;;;18.98;10.60;;;;;;;3.97;53.79;101123.00;5059895;28;20084;-68
2023/12/02 05:41:17;;;;;;;18.58;11.30;;;;;;;3.97;54.02;101125.66;5048909;28;20049;-69
2023/12/02 05:43:45;;;;;;;18.27;10.88;;;;;;;3.97;53.06;101125.66;5059846;28;20053;-69
2023/12/02 05:46:15;;;;;;;20.35;11.43;;;;;;;3.98;53.86;101126.47;5059594;28;20253;-68
2023/12/02 05:48:43;;;;;;;18.15;10.77;;;;;;;3.96;53.11;101118.69;5050708;28;20064;-68
2023/12/02 05:51:13;;;;;;;17.83;11.30;;;;;;;3.96;53.69;101123.16;5054061;28;20071;-68
2023/12/02 05:53:41;;;;;;;18.88;10.98;;;;;;;3.95;53.43;101125.00;5065486;28;20187;-68
2023/12/02 05:56:10;;;;;;;19.40;11.75;;;;;;;3.97;53.38;101130.97;5060681;28;20063;-68
2023/12/02 05:58:37;;;;;;;18.92;11.32;;;;;;;3.96;53.18;101124.00;5055326;28;20049;-68
2023/12/02 06:01:06;;;;;;;25.42;11.88;;;;;;;3.98;53.46;101127.31;5048961;28;20107;-68
2023/12/02 06:03:34;;;;;;;21.02;11.07;;;;;;;4.02;53.96;101125.13;5064056;28;20056;-66
2023/12/02 06:06:01;;;;;;;19.05;10.98;;;;;;;4.17;52.96;101128.72;5063417;28;20051;-69
2023/12/02 06:08:31;;;;;;;17.73;11.32;;;;;;;4.31;52.56;101132.50;5072731;28;20501;-68
2023/12/02 06:10:58;;;;;;;19.55;11.60;;;;;;;4.45;52.87;101139.72;5060064;28;20481;-69
2023/12/02 06:13:26;;;;;;;18.23;10.27;;;;;;;4.58;51.96;101140.00;5073656;28;20052;-68
2023/12/02 06:15:54;;;;;;;19.05;11.55;;;;;;;4.75;51.97;101146.03;5026311;28;20053;-67
2023/12/02 06:18:22;;;;;;;17.80;10.98;;;;;;;4.89;51.27;101147.94;5018996;28;20115;-68
2023/12/02 06:20:50;;;;;;;18.92;11.57;;;;;;;5.03;50.71;101151.69;5018814;28;20081;-67
2023/12/02 06:23:17;;;;;;;20.98;12.55;;;;;;;5.16;50.65;101155.41;5025721;28;20088;-69
2023/12/02 06:25:46;;;;;;;17.38;10.95;;;;;;;5.28;50.29;101157.59;5020278;28;20387;-69
2023/12/02 06:28:14;;;;;;;18.73;11.75;;;;;;;5.37;49.74;101149.34;5020439;28;20049;-68
2023/12/02 06:30:42;;;;;;;18.92;10.85;;;;;;;5.51;49.63;101159.22;5019431;28;20053;-68
2023/12/02 06:33:10;;;;;;;17.15;10.40;;;;;;;5.66;49.47;101159.25;5019186;28;20464;-68
2023/12/02 06:35:38;;;;;;;15.60;10.20;;;;;;;5.75;49.15;101154.66;5019771;28;20491;-68
2023/12/02 06:38:06;;;;;;;19.45;11.57;;;;;;;5.76;48.76;101157.16;5035319;28;20100;-67
2023/12/02 06:40:33;;;;;;;19.80;12.10;;;;;;;5.80;48.62;101161.09;5020437;28;20062;-66
2023/12/02 06:43:04;;;;;;;16.17;10.70;;;;;;;5.84;48.62;101159.72;5020966;28;20079;-68
2023/12/02 06:45:33;;;;;;;18.48;10.55;;;;;;;5.84;48.52;101165.06;5017110;28;20664;-68
2023/12/02 06:48:02;;;;;;;18.80;11.70;;;;;;;5.77;48.68;101171.31;5011454;28;20366;-67
2023/12/02 06:50:29;;;;;;;19.02;11.43;;;;;;;5.63;48.84;101180.94;5017394;28;20129;-68
2023/12/02 06:52:57;;;;;;;18.85;11.43;;;;;;;5.46;49.63;101185.59;5026656;28;20104;-68
2023/12/02 06:55:27;;;;;;;19.63;11.60;;;;;;;5.32;50.11;101182.88;5013025;28;20049;-67
2023/12/02 06:57:58;;;;;;;17.70;11.15;;;;;;;5.17;50.06;101186.34;5024396;28;20085;-67
2023/12/02 07:00:27;;;;;;;20.15;12.25;;;;;;;5.04;50.85;101191.44;5013419;28;20062;-68
2023/12/02 07:02:55;;;;;;;18.67;10.48;;;;;;;4.92;51.19;101198.19;5018379;28;20080;-72
2023/12/02 07:05:23;;;;;;;19.23;10.98;;;;;;;4.78;51.55;101196.28;5020720;28;20058;-69
2023/12/02 07:07:51;;;;;;;18.80;12.20;;;;;;;4.40;52.18;101212.09;5018482;28;20057;-71
2023/12/02 07:10:19;;;;;;;19.60;12.18;;;;;;;4.37;52.07;101209.78;5007993;28;20062;-72
2023/12/02 07:12:47;;;;;;;20.45;11.52;;;;;;;4.37;52.12;101212.44;5016762;28;20060;-72
2023/12/02 07:15:15;;;;;;;22.17;12.25;;;;;;;4.38;52.43;101211.44;5053100;28;20596;-71
2023/12/02 07:17:44;;;;;;;19.02;11.45;;;;;;;4.36;52.52;101210.78;5063405;28;20064;-71
2023/12/02 07:20:14;;;;;;;21.05;13.05;;;;;;;4.35;52.77;101216.28;5061826;28;20536;-68
2023/12/02 07:22:41;;;;;;;19.30;11.75;;;;;;;4.37;52.42;101228.41;5055371;28;20067;-68
2023/12/02 07:25:09;;;;;;;23.05;11.52;;;;;;;4.27;52.84;101222.47;5061504;28;20065;-69
2023/12/02 07:27:37;;;;;;;19.38;11.80;;;;;;;4.32;53.03;101230.75;5063268;28;20041;-69
2023/12/02 07:30:06;;;;;;;16.50;10.25;;;;;;;4.30;53.01;101232.75;5056263;28;20052;-69
2023/12/02 07:32:37;;;;;;;19.67;11.90;;;;;;;4.29;53.43;101233.75;5047889;28;20087;-68
2023/12/02 07:35:07;;;;;;;19.95;12.85;;;;;;;4.28;53.33;101234.75;5068239;28;20112;-69
2023/12/02 07:37:35;;;;;;;19.10;11.40;;;;;;;4.26;53.00;101234.09;5066293;28;20234;-70
2023/12/02 07:40:04;;;;;;;21.20;12.48;;;;;;;4.24;52.88;101230.78;5073634;28;20052;-68
2023/12/02 07:42:32;;;;;;;19.08;11.32;;;;;;;4.22;52.83;101235.44;5062394;28;20041;-69
2023/12/02 07:45:00;;;;;;;19.98;12.35;;;;;;;4.22;53.37;101243.44;5061042;28;20045;-70
2023/12/02 07:47:27;;;;;;;18.40;11.73;;;;;;;4.28;53.06;101237.41;5062034;28;20071;-69
2023/12/02 07:49:55;;;;;;;19.15;11.45;;;;;;;4.41;52.97;101228.91;5068564;28;20053;-69
2023/12/02 07:52:24;;;;;;;18.23;11.13;;;;;;;4.57;52.64;101229.66;5061217;28;20112;-69
2023/12/02 07:54:52;;;;;;;18.73;11.45;;;;;;;4.70;52.22;101228.28;5062721;28;20489;-68
2023/12/02 07:57:20;;;;;;;17.70;10.48;;;;;;;4.87;52.01;101233.34;5054081;28;20333;-69
2023/12/02 07:59:48;;;;;;;18.58;12.15;;;;;;;5.04;51.22;101231.41;5062176;28;20482;-69
2023/12/02 08:02:16;;;;;;;18.55;11.38;;;;;;;5.13;50.96;101233.00;5057017;28;20044;-68
2023/12/02 08:04:44;;;;;;;19.42;11.45;;;;;;;5.12;50.86;101235.84;5063743;28;20051;-68
2023/12/02 08:07:12;;;;;;;16.17;10.82;;;;;;;5.05;51.08;101248.22;5061850;28;20059;-68
2023/12/02 08:09:41;;;;;;;17.52;11.50;;;;;;;4.97;51.68;101246.44;5075338;28;20163;-68
2023/12/02 08:12:10;;;;;;;20.90;11.32;;;;;;;4.89;51.63;101249.97;5065708;28;20084;-68
2023/12/02 08:14:38;;;;;;;18.42;11.20;;;;;;;4.74;51.50;101235.75;5060768;28;20506;-67
2023/12/02 08:17:06;;;;;;;17.48;10.68;;;;;;;4.76;51.89;101265.69;5061872;28;20535;-69
2023/12/02 08:19:33;;;;;;;17.20;10.98;;;;;;;4.81;52.09;101281.13;5056489;28;20109;-67
2023/12/02 08:22:01;;;;;;;18.95;11.77;;;;;;;4.94;51.29;101276.09;5063249;28;20044;-69
2023/12/02 08:24:32;;;;;;;16.38;10.75;;;;;;;5.07;50.87;101273.69;5077942;28;20057;-68
2023/12/02 08:27:01;;;;;;;19.02;11.63;;;;;;;5.24;50.40;101285.03;5059116;28;20063;-68
2023/12/02 08:29:29;;;;;;;21.08;12.30;;;;;;;5.35;49.97;101275.81;5061585;28;20052;-66
2023/12/02 08:31:56;;;;;;;20.55;12.40;;;;;;;5.18;49.15;101270.63;5057096;28;20052;-66
2023/12/02 08:34:24;;;;;;;20.13;11.82;;;;;;;5.17;49.73;101273.44;5059704;28;20067;-66
2023/12/02 08:36:52;;;;;;;20.65;12.65;;;;;;;5.45;49.60;101274.56;5059198;28;20079;-68
2023/12/02 08:39:20;;;;;;;19.80;12.18;;;;;;;5.65;49.21;101282.91;5075888;28;20368;-66
2023/12/02 08:41:48;;;;;;;19.58;12.48;;;;;;;5.77;49.38;101278.81;5058813;28;20080;-66
2023/12/02 08:44:17;;;;;;;23.10;12.50;;;;;;;5.76;48.04;101289.66;5058048;28;20154;-65
2023/12/02 08:46:45;;;;;;;22.92;13.48;;;;;;;5.59;47.83;101291.63;5058093;28;20044;-66
2023/12/02 08:49:13;;;;;;;22.35;12.52;;;;;;;5.67;47.75;101293.41;5054590;28;20217;-64
2023/12/02 08:51:40;;;;;;;23.90;13.45;;;;;;;5.54;48.92;101297.50;5056354;28;20049;-67
2023/12/02 08:54:08;;;;;;;20.77;12.18;;;;;;;5.42;49.14;101308.75;5078161;28;20052;-71
2023/12/02 08:56:36;;;;;;;19.75;12.73;;;;;;;5.30;49.69;101313.63;5068480;28;20489;-68
2023/12/02 08:59:04;;;;;;;20.48;12.85;;;;;;;5.15;50.14;101310.94;5059355;28;20581;-68
2023/12/02 09:01:34;;;;;;;22.80;13.27;;;;;;;5.02;50.71;101318.66;5061486;28;20078;-69
2023/12/02 09:04:02;;;;;;;22.33;14.35;;;;;;;4.95;51.11;101322.19;5068748;28;20056;-63
2023/12/02 09:06:30;;;;;;;23.10;13.02;;;;;;;4.88;51.27;101322.03;5064484;28;20144;-67
2023/12/02 09:08:58;;;;;;;18.75;12.38;;;;;;;4.82;51.50;101328.06;5068806;28;20056;-68
2023/12/02 09:11:26;;;;;;;23.20;12.80;;;;;;;4.87;51.60;101323.88;5062386;28;20059;-68
2023/12/02 09:13:54;;;;;;;22.13;13.02;;;;;;;4.81;51.87;101334.38;5052549;28;20079;-66
2023/12/02 09:16:23;;;;;;;24.10;12.05;;;;;;;4.83;52.49;101335.88;5055216;28;20190;-65
2023/12/02 09:18:53;;;;;;;24.02;12.82;;;;;;;4.79;51.97;101331.91;5054263;28;20045;-71
2023/12/02 09:21:40;;;;;;;21.00;13.23;;;;;;;4.73;52.58;101329.94;5055031;28;20048;-67
2023/12/02 09:24:33;;;;;;;27.65;13.82;;;;;;;4.69;52.78;101335.75;5068281;28;20052;-66
2023/12/02 09:27:05;;;;;;;21.10;13.10;;;;;;;4.63;52.49;101328.47;5058115;28;20052;-68
2023/12/02 09:29:36;;;;;;;19.15;12.13;;;;;;;4.54;52.82;101328.47;5059100;28;20049;-68
2023/12/02 09:32:42;;;;;;;22.40;12.50;;;;;;;4.57;52.80;101338.78;5064970;28;20048;-68
2023/12/02 09:35:11;;;;;;;21.17;12.80;;;;;;;4.53;52.66;101340.13;5060745;28;20053;-66
2023/12/02 09:37:54;;;;;;;19.88;12.55;;;;;;;4.52;52.58;101343.78;5061105;28;20071;-71
2023/12/02 09:40:51;;;;;;;20.50;12.73;;;;;;;4.52;52.58;101334.97;5050851;28;20048;-66
2023/12/02 09:43:27;;;;;;;23.75;13.27;;;;;;;4.60;52.39;101344.78;5051716;28;20053;-67
2023/12/02 09:46:20;;;;;;;19.98;12.10;;;;;;;4.74;52.14;101350.22;5055089;28;20044;-64
2023/12/02 09:49:05;;;;;;;22.00;12.55;;;;;;;4.90;51.93;101350.16;5055971;28;20091;-65
2023/12/02 09:51:47;;;;;;;20.63;12.38;;;;;;;5.13;51.43;101358.22;5056218;28;20053;-64
2023/12/02 09:54:26;;;;;;;21.20;12.43;;;;;;;5.35;50.70;101353.09;5053660;28;20045;-67
2023/12/02 09:57:00;;;;;;;21.27;13.20;;;;;;;5.52;50.41;101360.00;5061479;28;20053;-65
2023/12/02 09:59:37;;;;;;;20.30;11.80;;;;;;;5.73;49.39;101354.00;5060591;28;20041;-68
2023/12/02 10:02:05;;;;;;;;;;;;;;;5.88;49.21;101353.06;5058594;28;20075;-65
2023/12/02 10:04:52;;;;;;;19.25;11.75;;;;;;;5.86;49.63;101351.59;5061495;28;19948;-65
2023/12/02 10:07:34;;;;;;;20.90;12.48;;;;;;;5.72;49.56;101355.84;5056511;28;20081;-66
2023/12/02 10:10:08;;;;;;;20.33;12.40;;;;;;;5.57;50.08;101350.44;5056123;28;20091;-64
2023/12/02 10:12:48;;;;;;;19.75;12.07;;;;;;;5.46;50.23;101353.53;5058927;28;20049;-66
2023/12/02 10:15:20;;;;;;;20.50;12.63;;;;;;;5.33;50.34;101350.59;5056229;28;20136;-67
2023/12/02 10:17:50;;;;;;;21.45;12.25;;;;;;;5.16;51.32;101346.41;5060499;28;20131;-68
2023/12/02 10:20:25;;;;;;;24.63;13.73;;;;;;;5.07;51.62;101334.94;5056024;28;20041;-67
2023/12/02 10:22:59;;;;;;;21.77;12.75;;;;;;;5.02;51.73;101341.78;5058585;28;20079;-67
2023/12/02 10:25:34;;;;;;;19.27;12.80;;;;;;;4.94;51.93;101344.50;5054206;28;20057;-66
2023/12/02 10:28:13;;;;;;;22.00;13.02;;;;;;;4.93;52.15;101337.50;5056579;28;20057;-69
2023/12/02 10:30:50;;;;;;;23.67;13.02;;;;;;;4.93;51.97;101342.84;5057184;28;20055;-65
2023/12/02 10:33:27;;;;;;;22.10;13.20;;;;;;;4.90;51.96;101350.16;5057433;28;20115;-67
2023/12/02 10:35:58;;;;;;;22.90;13.30;;;;;;;4.94;51.74;101358.66;5058096;28;20554;-67
2023/12/02 10:38:39;;;;;;;20.65;12.20;;;;;;;4.95;51.35;101357.63;5055960;28;20044;-68
2023/12/02 10:41:13;;;;;;;25.20;14.45;;;;;;;4.84;51.10;101353.53;5058176;28;20071;-66
2023/12/02 10:43:44;;;;;;;22.60;12.82;;;;;;;4.76;51.77;101353.53;5056856;28;20049;-68
2023/12/02 10:46:12;;;;;;;23.80;13.82;;;;;;;4.78;51.82;101358.69;5057756;28;20103;-67
2023/12/02 10:48:41;;;;;;;22.40;13.23;;;;;;;4.84;51.79;101358.84;5059758;28;20520;-68
2023/12/02 10:51:09;;;;;;;22.13;13.63;;;;;;;4.83;51.85;101361.69;5061773;28;20053;-69
2023/12/02 10:53:39;;;;;;;21.92;13.20;;;;;;;4.78;51.83;101366.69;5063104;28;20049;-68
2023/12/02 10:56:15;;;;;;;24.58;14.45;;;;;;;4.77;51.78;101365.03;5065075;28;20068;-68
2023/12/02 10:58:44;;;;;;;23.00;14.50;;;;;;;4.77;52.00;101362.38;5060653;28;20052;-68
2023/12/02 11:01:15;;;;;;;24.27;13.52;;;;;;;4.70;52.02;101361.38;5062345;28;20045;-69
2023/12/02 11:03:51;;;;;;;25.05;14.77;;;;;;;4.68;52.43;101371.38;5060670;28;20284;-69
2023/12/02 11:06:28;;;;;;;26.20;13.35;;;;;;;4.66;52.37;101366.22;5060655;28;20076;-68
2023/12/02 11:09:02;;;;;;;;;;;;;;;4.62;52.48;101358.75;5063907;28;20041;-69
2023/12/02 11:11:43;;;;;;;21.98;12.93;;;;;;;4.61;52.71;101357.91;5062361;28;19927;-65
2023/12/02 11:14:17;;;;;;;20.48;13.02;;;;;;;4.62;52.11;101364.91;5056349;28;20080;-68
2023/12/02 11:16:55;;;;;;;22.10;12.98;;;;;;;4.62;52.53;101370.22;5056909;28;20045;-69
2023/12/02 11:19:36;;;;;;;21.08;12.93;;;;;;;4.55;52.87;101362.09;5062478;28;20413;-69
2023/12/02 11:22:29;;;;;;;24.27;13.02;;;;;;;4.56;53.02;101373.56;5061230;28;20076;-68
2023/12/02 11:25:11;;;;;;;26.02;13.50;;;;;;;4.55;53.09;101375.41;5058136;28;20071;-69
2023/12/02 11:27:48;;;;;;;21.70;12.30;;;;;;;4.58;52.98;101369.75;5058552;28;20466;-67
2023/12/02 11:30:19;;;;;;;;;;;;;;;4.58;53.28;101369.75;5053557;28;20061;-69